DLH9LA EDDN-EDDF
Flight info
| Callsign | DLH9LA |
|---|---|
| Flight time | 0h 33m |
| Altitude | 24000 |
| Route | SUKAD1G SUKAD DCT PIWAW T159 SPESA SPESA4C |
| Aircraft | A359/H-SDE2E3GHIJ3J4J5LM1ORWXY/LB1D1 |
Departure
| Time | 2026-04-14 14:49 |
|---|---|
| Airport | Nuremberg Airport (EDDN) |
Arrival
| Time | 2026-04-14 15:22 |
|---|---|
| Airport | Frankfurt Main Airport (EDDF) |
| Time | Latitude | Longitude | Altitude | Speed | Heading |
|---|---|---|---|---|---|
| 2026-04-14 14:09 | 49.49554 | 11.07520 | 1033 ft | 0 kts | 188° |
| 2026-04-14 14:24 | 49.49570 | 11.07524 | 1033 ft | 2 kts | 188° |
| 2026-04-14 14:24 | 49.49588 | 11.07528 | 1034 ft | 3 kts | 171° |
| 2026-04-14 14:25 | 49.49606 | 11.07518 | 1031 ft | 3 kts | 132° |
| 2026-04-14 14:25 | 49.49615 | 11.07495 | 1034 ft | 0 kts | 97° |
| 2026-04-14 14:25 | 49.49615 | 11.07494 | 1034 ft | 0 kts | 98° |
| 2026-04-14 14:27 | 49.49614 | 11.07497 | 1034 ft | 3 kts | 101° |
| 2026-04-14 14:27 | 49.49601 | 11.07626 | 1035 ft | 14 kts | 98° |
| 2026-04-14 14:27 | 49.49586 | 11.07784 | 1036 ft | 16 kts | 99° |
| 2026-04-14 14:28 | 49.49567 | 11.07962 | 1036 ft | 18 kts | 99° |
| 2026-04-14 14:28 | 49.49547 | 11.08170 | 1036 ft | 21 kts | 98° |
| 2026-04-14 14:28 | 49.49579 | 11.08349 | 1038 ft | 17 kts | 34° |
| 2026-04-14 14:28 | 49.49609 | 11.08500 | 1038 ft | 15 kts | 98° |
| 2026-04-14 14:29 | 49.49594 | 11.08663 | 1040 ft | 16 kts | 98° |
| 2026-04-14 14:29 | 49.49577 | 11.08838 | 1042 ft | 17 kts | 98° |
| 2026-04-14 14:29 | 49.49561 | 11.09022 | 1043 ft | 18 kts | 98° |
| 2026-04-14 14:29 | 49.49539 | 11.09217 | 1045 ft | 18 kts | 98° |
| 2026-04-14 14:30 | 49.49533 | 11.09306 | 1047 ft | 0 kts | 89° |
| 2026-04-14 14:38 | 49.49537 | 11.09348 | 1048 ft | 7 kts | 76° |
| 2026-04-14 14:38 | 49.49545 | 11.09377 | 1048 ft | 0 kts | 62° |
| 2026-04-14 14:39 | 49.49570 | 11.09437 | 1048 ft | 12 kts | 55° |
| 2026-04-14 14:39 | 49.49597 | 11.09494 | 1049 ft | 0 kts | 54° |
| 2026-04-14 14:45 | 49.49608 | 11.09516 | 1049 ft | 11 kts | 49° |
| 2026-04-14 14:45 | 49.49674 | 11.09555 | 1051 ft | 9 kts | 346° |
| 2026-04-14 14:45 | 49.49705 | 11.09479 | 1050 ft | 8 kts | 277° |
| 2026-04-14 14:46 | 49.49707 | 11.09457 | 1049 ft | 0 kts | 278° |
| 2026-04-14 14:48 | 49.49724 | 11.09282 | 1048 ft | 58 kts | 278° |
| 2026-04-14 14:49 | 49.49840 | 11.08135 | 1039 ft | 155 kts | 281° |
| 2026-04-14 14:49 | 49.50030 | 11.06336 | 1852 ft | 177 kts | 281° |
| 2026-04-14 14:49 | 49.50224 | 11.04416 | 2882 ft | 185 kts | 282° |
| 2026-04-14 14:49 | 49.50429 | 11.02353 | 3271 ft | 206 kts | 281° |
| 2026-04-14 14:50 | 49.50654 | 11.00028 | 3557 ft | 233 kts | 281° |
| 2026-04-14 14:50 | 49.50900 | 10.97463 | 3980 ft | 250 kts | 280° |
| 2026-04-14 14:50 | 49.51156 | 10.94773 | 4634 ft | 257 kts | 280° |
| 2026-04-14 14:50 | 49.51421 | 10.92024 | 5348 ft | 262 kts | 280° |
| 2026-04-14 14:51 | 49.51694 | 10.89232 | 6046 ft | 266 kts | 279° |
| 2026-04-14 14:51 | 49.51964 | 10.86399 | 6775 ft | 269 kts | 279° |
| 2026-04-14 14:51 | 49.52237 | 10.83543 | 7485 ft | 271 kts | 278° |
| 2026-04-14 14:51 | 49.52521 | 10.80677 | 8240 ft | 271 kts | 279° |
| 2026-04-14 14:52 | 49.53073 | 10.77889 | 8950 ft | 275 kts | 292° |
| 2026-04-14 14:52 | 49.53858 | 10.75180 | 9629 ft | 279 kts | 295° |
| 2026-04-14 14:52 | 49.54742 | 10.72513 | 10343 ft | 282 kts | 297° |
| 2026-04-14 14:52 | 49.55703 | 10.69795 | 10691 ft | 297 kts | 298° |
| 2026-04-14 14:53 | 49.56744 | 10.66944 | 10969 ft | 314 kts | 299° |
| 2026-04-14 14:53 | 49.57803 | 10.64068 | 11252 ft | 327 kts | 298° |
| 2026-04-14 14:53 | 49.58959 | 10.60906 | 11552 ft | 340 kts | 298° |
| 2026-04-14 14:53 | 49.60110 | 10.57725 | 11979 ft | 347 kts | 298° |
| 2026-04-14 14:54 | 49.61282 | 10.54462 | 12577 ft | 349 kts | 298° |
| 2026-04-14 14:54 | 49.62463 | 10.51152 | 13011 ft | 356 kts | 298° |
| 2026-04-14 14:54 | 49.63659 | 10.47791 | 13562 ft | 359 kts | 298° |
| 2026-04-14 14:54 | 49.64861 | 10.44405 | 14109 ft | 361 kts | 298° |
| 2026-04-14 14:55 | 49.66066 | 10.41007 | 14636 ft | 362 kts | 298° |
| 2026-04-14 14:55 | 49.67284 | 10.37570 | 15079 ft | 367 kts | 298° |
| 2026-04-14 14:55 | 49.68515 | 10.34089 | 15534 ft | 370 kts | 298° |
| 2026-04-14 14:55 | 49.69750 | 10.30593 | 16027 ft | 373 kts | 298° |
| 2026-04-14 14:56 | 49.72252 | 10.23501 | 17042 ft | 378 kts | 297° |
| 2026-04-14 14:56 | 49.73513 | 10.19920 | 17526 ft | 381 kts | 297° |
| 2026-04-14 14:56 | 49.74783 | 10.16305 | 17995 ft | 384 kts | 297° |
| 2026-04-14 14:57 | 49.76061 | 10.12664 | 18457 ft | 387 kts | 297° |
| 2026-04-14 14:57 | 49.76911 | 10.10238 | 18533 ft | 391 kts | 297° |
| 2026-04-14 14:57 | 49.78229 | 10.06469 | 18543 ft | 404 kts | 297° |
| 2026-04-14 14:57 | 49.79560 | 10.02661 | 18377 ft | 397 kts | 297° |
| 2026-04-14 14:58 | 49.80856 | 9.98953 | 18080 ft | 388 kts | 297° |
| 2026-04-14 14:58 | 49.81999 | 9.95194 | 17758 ft | 384 kts | 289° |
| 2026-04-14 14:58 | 49.82659 | 9.91213 | 17430 ft | 381 kts | 279° |
| 2026-04-14 14:58 | 49.83016 | 9.87164 | 17119 ft | 379 kts | 276° |
| 2026-04-14 14:59 | 49.83301 | 9.83114 | 16805 ft | 377 kts | 275° |
| 2026-04-14 14:59 | 49.83565 | 9.79087 | 16492 ft | 375 kts | 275° |
| 2026-04-14 14:59 | 49.83819 | 9.75069 | 16168 ft | 374 kts | 275° |
| 2026-04-14 14:59 | 49.84068 | 9.71071 | 15892 ft | 372 kts | 275° |
| 2026-04-14 15:00 | 49.84312 | 9.67097 | 15592 ft | 370 kts | 275° |
| 2026-04-14 15:00 | 49.84552 | 9.63142 | 15284 ft | 368 kts | 275° |
| 2026-04-14 15:00 | 49.84790 | 9.59202 | 14993 ft | 366 kts | 275° |
| 2026-04-14 15:00 | 49.85025 | 9.55287 | 14701 ft | 364 kts | 275° |
| 2026-04-14 15:01 | 49.85257 | 9.51390 | 14413 ft | 363 kts | 275° |
| 2026-04-14 15:01 | 49.85487 | 9.47499 | 14125 ft | 361 kts | 275° |
| 2026-04-14 15:01 | 49.85715 | 9.43633 | 13832 ft | 359 kts | 275° |
| 2026-04-14 15:01 | 49.85940 | 9.39782 | 13518 ft | 358 kts | 274° |
| 2026-04-14 15:02 | 49.86188 | 9.35958 | 13187 ft | 357 kts | 277° |
| 2026-04-14 15:02 | 49.86722 | 9.32208 | 12877 ft | 356 kts | 284° |
| 2026-04-14 15:02 | 49.87413 | 9.28537 | 12565 ft | 354 kts | 285° |
| 2026-04-14 15:02 | 49.88121 | 9.24885 | 12253 ft | 353 kts | 285° |
| 2026-04-14 15:03 | 49.88822 | 9.21256 | 11932 ft | 347 kts | 285° |
| 2026-04-14 15:03 | 49.89500 | 9.17728 | 11649 ft | 335 kts | 285° |
| 2026-04-14 15:03 | 49.90153 | 9.14316 | 11350 ft | 326 kts | 285° |
| 2026-04-14 15:03 | 49.90786 | 9.10993 | 11045 ft | 316 kts | 285° |
| 2026-04-14 15:04 | 49.91400 | 9.07769 | 10744 ft | 304 kts | 285° |
| 2026-04-14 15:04 | 49.91979 | 9.04725 | 10386 ft | 285 kts | 284° |
| 2026-04-14 15:04 | 49.92529 | 9.01840 | 9948 ft | 273 kts | 285° |
| 2026-04-14 15:04 | 49.93057 | 8.99076 | 9450 ft | 262 kts | 285° |
| 2026-04-14 15:05 | 49.93563 | 8.96402 | 8979 ft | 255 kts | 286° |
| 2026-04-14 15:05 | 49.94059 | 8.93789 | 8514 ft | 250 kts | 287° |
| 2026-04-14 15:05 | 49.94543 | 8.91230 | 8216 ft | 245 kts | 288° |
| 2026-04-14 15:05 | 49.95028 | 8.88686 | 8183 ft | 247 kts | 288° |
| 2026-04-14 15:06 | 49.95512 | 8.86140 | 8181 ft | 245 kts | 287° |
| 2026-04-14 15:06 | 49.95995 | 8.83602 | 8181 ft | 245 kts | 287° |
| 2026-04-14 15:06 | 49.96476 | 8.81061 | 8182 ft | 245 kts | 287° |
| 2026-04-14 15:06 | 49.96957 | 8.78519 | 8183 ft | 245 kts | 287° |
| 2026-04-14 15:07 | 49.97431 | 8.75976 | 8182 ft | 245 kts | 287° |
| 2026-04-14 15:07 | 49.97763 | 8.73378 | 8182 ft | 246 kts | 277° |
| 2026-04-14 15:07 | 49.97764 | 8.70727 | 8183 ft | 247 kts | 265° |
| 2026-04-14 15:07 | 49.97396 | 8.68120 | 8186 ft | 248 kts | 253° |
| 2026-04-14 15:08 | 49.96815 | 8.65594 | 8186 ft | 249 kts | 250° |
| 2026-04-14 15:08 | 49.96208 | 8.63119 | 8184 ft | 249 kts | 251° |
| 2026-04-14 15:08 | 49.95594 | 8.60608 | 8183 ft | 249 kts | 251° |
| 2026-04-14 15:08 | 49.94983 | 8.58100 | 8121 ft | 247 kts | 251° |
| 2026-04-14 15:09 | 49.94376 | 8.55594 | 7806 ft | 245 kts | 250° |
| 2026-04-14 15:09 | 49.93776 | 8.53112 | 7408 ft | 247 kts | 251° |
| 2026-04-14 15:09 | 49.93176 | 8.50637 | 7034 ft | 249 kts | 251° |
| 2026-04-14 15:09 | 49.92568 | 8.48123 | 6688 ft | 249 kts | 251° |
| 2026-04-14 15:10 | 49.91966 | 8.45614 | 6404 ft | 248 kts | 251° |
| 2026-04-14 15:10 | 49.91362 | 8.43110 | 6183 ft | 247 kts | 251° |
| 2026-04-14 15:10 | 49.90757 | 8.40609 | 5848 ft | 247 kts | 251° |
| 2026-04-14 15:10 | 49.90148 | 8.38090 | 5542 ft | 244 kts | 251° |
| 2026-04-14 15:11 | 49.89553 | 8.35631 | 5350 ft | 243 kts | 251° |
| 2026-04-14 15:11 | 49.88960 | 8.33185 | 5147 ft | 243 kts | 251° |
| 2026-04-14 15:11 | 49.88374 | 8.30767 | 4961 ft | 242 kts | 251° |
| 2026-04-14 15:11 | 49.87779 | 8.28296 | 4724 ft | 241 kts | 251° |
| 2026-04-14 15:12 | 49.87198 | 8.25903 | 4529 ft | 239 kts | 251° |
| 2026-04-14 15:12 | 49.86611 | 8.23499 | 4320 ft | 238 kts | 251° |
| 2026-04-14 15:12 | 49.86024 | 8.21095 | 4114 ft | 238 kts | 251° |
| 2026-04-14 15:12 | 49.85446 | 8.18710 | 4002 ft | 237 kts | 251° |
| 2026-04-14 15:13 | 49.84865 | 8.16328 | 3984 ft | 236 kts | 250° |
| 2026-04-14 15:13 | 49.84282 | 8.13948 | 3996 ft | 236 kts | 251° |
| 2026-04-14 15:13 | 49.83768 | 8.11538 | 3981 ft | 235 kts | 261° |
| 2026-04-14 15:13 | 49.83913 | 8.09075 | 3992 ft | 230 kts | 294° |
| 2026-04-14 15:14 | 49.84852 | 8.07148 | 3996 ft | 225 kts | 326° |
| 2026-04-14 15:14 | 49.86241 | 8.06082 | 3993 ft | 223 kts | 341° |
| 2026-04-14 15:14 | 49.87716 | 8.05296 | 3995 ft | 224 kts | 343° |
| 2026-04-14 15:14 | 49.89200 | 8.04551 | 3994 ft | 224 kts | 343° |
| 2026-04-14 15:15 | 49.90712 | 8.04018 | 3986 ft | 224 kts | 2° |
| 2026-04-14 15:15 | 49.92125 | 8.04868 | 3997 ft | 221 kts | 41° |
| 2026-04-14 15:15 | 49.92839 | 8.06945 | 3997 ft | 225 kts | 81° |
| 2026-04-14 15:15 | 49.92946 | 8.09371 | 3995 ft | 227 kts | 83° |
| 2026-04-14 15:16 | 49.93147 | 8.11801 | 3999 ft | 227 kts | 78° |
| 2026-04-14 15:16 | 49.93497 | 8.14201 | 3999 ft | 230 kts | 72° |
| 2026-04-14 15:16 | 49.93983 | 8.16545 | 3990 ft | 227 kts | 69° |
| 2026-04-14 15:16 | 49.94515 | 8.18816 | 3993 ft | 226 kts | 68° |
| 2026-04-14 15:17 | 49.95073 | 8.21132 | 3990 ft | 224 kts | 67° |
| 2026-04-14 15:17 | 49.95597 | 8.23332 | 3985 ft | 210 kts | 67° |
| 2026-04-14 15:17 | 49.96083 | 8.25384 | 3981 ft | 197 kts | 68° |
| 2026-04-14 15:17 | 49.96549 | 8.27363 | 3909 ft | 194 kts | 68° |
| 2026-04-14 15:18 | 49.97011 | 8.29318 | 3676 ft | 192 kts | 67° |
| 2026-04-14 15:18 | 49.97478 | 8.31260 | 3424 ft | 191 kts | 67° |
| 2026-04-14 15:18 | 49.97926 | 8.33140 | 3145 ft | 181 kts | 68° |
| 2026-04-14 15:18 | 49.98357 | 8.34949 | 2872 ft | 177 kts | 68° |
| 2026-04-14 15:19 | 49.98778 | 8.36714 | 2616 ft | 172 kts | 67° |
| 2026-04-14 15:19 | 49.99184 | 8.38414 | 2389 ft | 164 kts | 68° |
| 2026-04-14 15:19 | 49.99565 | 8.40015 | 2170 ft | 155 kts | 68° |
| 2026-04-14 15:19 | 49.99931 | 8.41548 | 1954 ft | 146 kts | 68° |
| 2026-04-14 15:20 | 50.00273 | 8.42989 | 1759 ft | 137 kts | 67° |
| 2026-04-14 15:20 | 50.00590 | 8.44317 | 1581 ft | 129 kts | 67° |
| 2026-04-14 15:20 | 50.00900 | 8.45608 | 1418 ft | 127 kts | 68° |
| 2026-04-14 15:20 | 50.01196 | 8.46912 | 1225 ft | 128 kts | 70° |
| 2026-04-14 15:21 | 50.01484 | 8.48231 | 1047 ft | 129 kts | 66° |
| 2026-04-14 15:21 | 50.01812 | 8.49535 | 876 ft | 130 kts | 65° |
| 2026-04-14 15:21 | 50.02132 | 8.50832 | 736 ft | 128 kts | 68° |
| 2026-04-14 15:21 | 50.02445 | 8.52123 | 569 ft | 127 kts | 65° |
| 2026-04-14 15:22 | 50.02759 | 8.53415 | 402 ft | 128 kts | 69° |
| 2026-04-14 15:22 | 50.03052 | 8.54660 | 365 ft | 111 kts | 69° |
| 2026-04-14 15:22 | 50.03281 | 8.55614 | 364 ft | 79 kts | 69° |
| 2026-04-14 15:22 | 50.03406 | 8.56141 | 369 ft | 20 kts | 70° |
| 2026-04-14 15:23 | 50.03456 | 8.56342 | 367 ft | 20 kts | 69° |
| 2026-04-14 15:23 | 50.03508 | 8.56555 | 371 ft | 23 kts | 69° |
| 2026-04-14 15:23 | 50.03567 | 8.56797 | 369 ft | 24 kts | 68° |
| 2026-04-14 15:23 | 50.03654 | 8.57012 | 370 ft | 23 kts | 48° |
| 2026-04-14 15:24 | 50.03772 | 8.57176 | 374 ft | 22 kts | 38° |
| 2026-04-14 15:24 | 50.03897 | 8.57334 | 375 ft | 24 kts | 40° |
| 2026-04-14 15:24 | 50.03986 | 8.57541 | 371 ft | 24 kts | 70° |
| 2026-04-14 15:24 | 50.04045 | 8.57787 | 372 ft | 25 kts | 69° |
| 2026-04-14 15:25 | 50.04109 | 8.58049 | 373 ft | 26 kts | 65° |
| 2026-04-14 15:25 | 50.04242 | 8.58199 | 375 ft | 23 kts | 7° |
| 2026-04-14 15:25 | 50.04393 | 8.58140 | 378 ft | 23 kts | 340° |
| 2026-04-14 15:25 | 50.04492 | 8.58083 | 374 ft | 8 kts | 334° |
| 2026-04-14 15:26 | 50.04528 | 8.58006 | 373 ft | 12 kts | 285° |
| 2026-04-14 15:26 | 50.04499 | 8.57836 | 373 ft | 17 kts | 249° |
| 2026-04-14 15:26 | 50.04487 | 8.57785 | 371 ft | 0 kts | 249° |
| 2026-04-14 15:27 | 50.04477 | 8.57743 | 375 ft | 14 kts | 249° |
| 2026-04-14 15:28 | 50.04438 | 8.57586 | 376 ft | 17 kts | 249° |
| 2026-04-14 15:28 | 50.04393 | 8.57395 | 375 ft | 20 kts | 250° |
| 2026-04-14 15:28 | 50.04340 | 8.57176 | 374 ft | 23 kts | 249° |
| 2026-04-14 15:28 | 50.04282 | 8.56929 | 374 ft | 25 kts | 250° |
| 2026-04-14 15:29 | 50.04218 | 8.56658 | 373 ft | 28 kts | 249° |
| 2026-04-14 15:29 | 50.04154 | 8.56393 | 373 ft | 14 kts | 252° |
| 2026-04-14 15:29 | 50.04173 | 8.56286 | 375 ft | 9 kts | 315° |
| 2026-04-14 15:29 | 50.04202 | 8.56262 | 374 ft | 0 kts | 339° |
| 2026-04-14 15:32 | 50.04251 | 8.56232 | 372 ft | 12 kts | 335° |
| 2026-04-14 15:33 | 50.04283 | 8.56132 | 372 ft | 11 kts | 263° |
| 2026-04-14 15:33 | 50.04269 | 8.56020 | 369 ft | 9 kts | 282° |
| 2026-04-14 15:33 | 50.04309 | 8.55952 | 372 ft | 12 kts | 330° |
| 2026-04-14 15:33 | 50.04389 | 8.55912 | 370 ft | 12 kts | 357° |
| 2026-04-14 15:34 | 50.04474 | 8.55932 | 371 ft | 13 kts | 14° |
| 2026-04-14 15:34 | 50.04558 | 8.55999 | 374 ft | 14 kts | 48° |
| 2026-04-14 15:34 | 50.04594 | 8.56125 | 374 ft | 14 kts | 68° |
| 2026-04-14 15:34 | 50.04629 | 8.56279 | 371 ft | 16 kts | 71° |
| 2026-04-14 15:35 | 50.04679 | 8.56414 | 374 ft | 11 kts | 25° |
| 2026-04-14 15:35 | 50.04745 | 8.56394 | 372 ft | 10 kts | 340° |
| 2026-04-14 15:35 | 50.04754 | 8.56388 | 372 ft | 0 kts | 339° |